sensor_id;sensor_type;location;lat;lon;timestamp;temperature;humidity
73576;DHT22;61859;49.204;8.140;2022-08-19T00:02:02;21.30;77.70
73576;DHT22;61859;49.204;8.140;2022-08-19T00:04:31;21.40;77.80
73576;DHT22;61859;49.204;8.140;2022-08-19T00:06:58;21.20;77.80
73576;DHT22;61859;49.204;8.140;2022-08-19T00:09:24;21.20;78.30
73576;DHT22;61859;49.204;8.140;2022-08-19T00:11:51;21.30;77.30
73576;DHT22;61859;49.204;8.140;2022-08-19T00:14:17;21.20;77.10
73576;DHT22;61859;49.204;8.140;2022-08-19T00:16:46;21.40;77.10
73576;DHT22;61859;49.204;8.140;2022-08-19T00:19:14;21.40;76.70
73576;DHT22;61859;49.204;8.140;2022-08-19T00:21:40;21.40;76.40
73576;DHT22;61859;49.204;8.140;2022-08-19T00:24:07;21.50;76.30
73576;DHT22;61859;49.204;8.140;2022-08-19T00:26:33;21.50;76.30
73576;DHT22;61859;49.204;8.140;2022-08-19T00:28:59;21.40;76.00
73576;DHT22;61859;49.204;8.140;2022-08-19T00:31:26;21.50;75.70
73576;DHT22;61859;49.204;8.140;2022-08-19T00:33:53;21.50;75.90
73576;DHT22;61859;49.204;8.140;2022-08-19T00:36:19;21.50;76.10
73576;DHT22;61859;49.204;8.140;2022-08-19T00:38:45;21.50;76.20
73576;DHT22;61859;49.204;8.140;2022-08-19T00:41:16;21.50;76.40
73576;DHT22;61859;49.204;8.140;2022-08-19T00:43:43;21.50;76.50
73576;DHT22;61859;49.204;8.140;2022-08-19T00:46:21;21.40;76.40
73576;DHT22;61859;49.204;8.140;2022-08-19T00:48:46;21.40;76.40
73576;DHT22;61859;49.204;8.140;2022-08-19T00:51:12;21.50;76.90
73576;DHT22;61859;49.204;8.140;2022-08-19T00:53:37;21.40;77.10
73576;DHT22;61859;49.204;8.140;2022-08-19T00:56:05;21.40;76.90
73576;DHT22;61859;49.204;8.140;2022-08-19T00:58:33;21.40;76.80
73576;DHT22;61859;49.204;8.140;2022-08-19T01:01:00;21.40;76.90
73576;DHT22;61859;49.204;8.140;2022-08-19T01:03:26;21.30;77.60
73576;DHT22;61859;49.204;8.140;2022-08-19T01:05:52;21.30;77.80
73576;DHT22;61859;49.204;8.140;2022-08-19T01:08:19;21.20;78.10
73576;DHT22;61859;49.204;8.140;2022-08-19T01:10:48;21.20;78.10
73576;DHT22;61859;49.204;8.140;2022-08-19T01:13:16;21.10;78.00
73576;DHT22;61859;49.204;8.140;2022-08-19T01:15:46;21.20;77.90
73576;DHT22;61859;49.204;8.140;2022-08-19T01:18:15;21.10;78.20
73576;DHT22;61859;49.204;8.140;2022-08-19T01:20:42;21.10;78.30
73576;DHT22;61859;49.204;8.140;2022-08-19T01:23:08;21.00;78.50
73576;DHT22;61859;49.204;8.140;2022-08-19T01:25:47;21.00;79.10
73576;DHT22;61859;49.204;8.140;2022-08-19T01:28:20;21.00;78.80
73576;DHT22;61859;49.204;8.140;2022-08-19T01:30:46;20.90;78.90
73576;DHT22;61859;49.204;8.140;2022-08-19T01:33:12;20.90;79.10
73576;DHT22;61859;49.204;8.140;2022-08-19T01:35:38;20.80;80.00
73576;DHT22;61859;49.204;8.140;2022-08-19T01:38:07;20.90;79.40
73576;DHT22;61859;49.204;8.140;2022-08-19T01:40:35;20.90;80.00
73576;DHT22;61859;49.204;8.140;2022-08-19T01:43:02;20.80;80.10
73576;DHT22;61859;49.204;8.140;2022-08-19T01:45:30;20.80;80.40
73576;DHT22;61859;49.204;8.140;2022-08-19T01:47:58;20.80;80.40
73576;DHT22;61859;49.204;8.140;2022-08-19T01:50:24;20.70;80.30
73576;DHT22;61859;49.204;8.140;2022-08-19T01:52:50;20.80;80.20
73576;DHT22;61859;49.204;8.140;2022-08-19T01:55:21;20.70;80.50
73576;DHT22;61859;49.204;8.140;2022-08-19T01:57:52;20.70;80.50
73576;DHT22;61859;49.204;8.140;2022-08-19T02:00:22;20.70;80.40
73576;DHT22;61859;49.204;8.140;2022-08-19T02:02:48;20.80;80.20
73576;DHT22;61859;49.204;8.140;2022-08-19T02:05:14;20.80;80.50
73576;DHT22;61859;49.204;8.140;2022-08-19T02:07:40;20.80;80.30
73576;DHT22;61859;49.204;8.140;2022-08-19T02:10:11;20.80;80.10
73576;DHT22;61859;49.204;8.140;2022-08-19T02:12:37;20.80;80.00
73576;DHT22;61859;49.204;8.140;2022-08-19T02:15:03;20.80;80.00
73576;DHT22;61859;49.204;8.140;2022-08-19T02:17:29;20.80;80.00
73576;DHT22;61859;49.204;8.140;2022-08-19T02:19:55;20.80;80.10
73576;DHT22;61859;49.204;8.140;2022-08-19T02:22:22;20.80;80.10
73576;DHT22;61859;49.204;8.140;2022-08-19T02:24:48;20.80;80.10
73576;DHT22;61859;49.204;8.140;2022-08-19T02:27:14;20.80;79.50
73576;DHT22;61859;49.204;8.140;2022-08-19T02:29:40;20.80;79.30
73576;DHT22;61859;49.204;8.140;2022-08-19T02:32:06;20.80;79.00
73576;DHT22;61859;49.204;8.140;2022-08-19T02:34:32;20.80;78.80
73576;DHT22;61859;49.204;8.140;2022-08-19T02:36:58;20.90;78.20
73576;DHT22;61859;49.204;8.140;2022-08-19T02:39:23;20.90;78.50
73576;DHT22;61859;49.204;8.140;2022-08-19T02:41:49;20.90;79.10
73576;DHT22;61859;49.204;8.140;2022-08-19T02:44:16;20.90;79.50
73576;DHT22;61859;49.204;8.140;2022-08-19T02:46:41;20.80;79.80
73576;DHT22;61859;49.204;8.140;2022-08-19T02:49:08;20.80;79.80
73576;DHT22;61859;49.204;8.140;2022-08-19T02:51:37;20.80;79.90
73576;DHT22;61859;49.204;8.140;2022-08-19T02:54:04;20.80;80.00
73576;DHT22;61859;49.204;8.140;2022-08-19T02:56:30;20.80;80.40
73576;DHT22;61859;49.204;8.140;2022-08-19T02:58:56;20.70;80.60
73576;DHT22;61859;49.204;8.140;2022-08-19T03:01:28;20.80;80.70
73576;DHT22;61859;49.204;8.140;2022-08-19T03:03:55;20.70;80.70
73576;DHT22;61859;49.204;8.140;2022-08-19T03:06:21;20.70;80.50
73576;DHT22;61859;49.204;8.140;2022-08-19T03:08:47;20.70;79.60
73576;DHT22;61859;49.204;8.140;2022-08-19T03:11:16;20.70;79.10
73576;DHT22;61859;49.204;8.140;2022-08-19T03:13:42;20.80;78.70
73576;DHT22;61859;49.204;8.140;2022-08-19T03:16:09;20.70;78.50
73576;DHT22;61859;49.204;8.140;2022-08-19T03:18:35;20.70;78.20
73576;DHT22;61859;49.204;8.140;2022-08-19T03:21:01;20.70;78.00
73576;DHT22;61859;49.204;8.140;2022-08-19T03:23:26;20.70;77.50
73576;DHT22;61859;49.204;8.140;2022-08-19T03:25:53;20.80;77.70
73576;DHT22;61859;49.204;8.140;2022-08-19T03:28:19;20.70;77.80
73576;DHT22;61859;49.204;8.140;2022-08-19T03:31:07;20.80;77.70
73576;DHT22;61859;49.204;8.140;2022-08-19T03:33:33;20.70;77.70
73576;DHT22;61859;49.204;8.140;2022-08-19T03:36:06;20.70;77.70
73576;DHT22;61859;49.204;8.140;2022-08-19T03:38:35;20.70;77.60
73576;DHT22;61859;49.204;8.140;2022-08-19T03:41:30;20.80;77.40
73576;DHT22;61859;49.204;8.140;2022-08-19T03:43:54;20.70;77.20
73576;DHT22;61859;49.204;8.140;2022-08-19T03:46:28;20.70;77.20
73576;DHT22;61859;49.204;8.140;2022-08-19T03:48:56;20.70;77.30
73576;DHT22;61859;49.204;8.140;2022-08-19T03:51:27;20.80;77.60
73576;DHT22;61859;49.204;8.140;2022-08-19T03:53:54;20.70;77.00
73576;DHT22;61859;49.204;8.140;2022-08-19T03:56:21;20.70;77.10
73576;DHT22;61859;49.204;8.140;2022-08-19T03:58:46;20.70;77.00
73576;DHT22;61859;49.204;8.140;2022-08-19T04:01:16;20.80;76.60
73576;DHT22;61859;49.204;8.140;2022-08-19T04:03:43;20.90;76.10
73576;DHT22;61859;49.204;8.140;2022-08-19T04:06:20;20.90;76.30
73576;DHT22;61859;49.204;8.140;2022-08-19T04:08:50;20.90;76.30
73576;DHT22;61859;49.204;8.140;2022-08-19T04:11:19;20.80;76.10
73576;DHT22;61859;49.204;8.140;2022-08-19T04:13:47;20.90;76.60
73576;DHT22;61859;49.204;8.140;2022-08-19T04:16:13;20.90;76.50
73576;DHT22;61859;49.204;8.140;2022-08-19T04:18:40;20.80;76.00
73576;DHT22;61859;49.204;8.140;2022-08-19T04:21:07;20.90;75.40
73576;DHT22;61859;49.204;8.140;2022-08-19T04:23:33;21.00;75.80
73576;DHT22;61859;49.204;8.140;2022-08-19T04:25:59;20.90;75.80
73576;DHT22;61859;49.204;8.140;2022-08-19T04:28:25;20.80;76.70
73576;DHT22;61859;49.204;8.140;2022-08-19T04:30:53;20.80;76.70
73576;DHT22;61859;49.204;8.140;2022-08-19T04:33:23;20.70;77.30
73576;DHT22;61859;49.204;8.140;2022-08-19T04:35:51;20.60;77.70
73576;DHT22;61859;49.204;8.140;2022-08-19T04:38:19;20.60;77.70
73576;DHT22;61859;49.204;8.140;2022-08-19T04:40:50;20.60;77.60
73576;DHT22;61859;49.204;8.140;2022-08-19T04:43:36;20.60;78.10
73576;DHT22;61859;49.204;8.140;2022-08-19T04:48:32;20.60;78.20
73576;DHT22;61859;49.204;8.140;2022-08-19T04:50:58;20.60;78.20
73576;DHT22;61859;49.204;8.140;2022-08-19T04:53:26;20.60;78.30
73576;DHT22;61859;49.204;8.140;2022-08-19T04:55:57;20.60;78.10
73576;DHT22;61859;49.204;8.140;2022-08-19T04:58:25;20.60;78.10
73576;DHT22;61859;49.204;8.140;2022-08-19T05:00:52;20.60;77.90
73576;DHT22;61859;49.204;8.140;2022-08-19T05:03:18;20.60;77.90
73576;DHT22;61859;49.204;8.140;2022-08-19T05:05:45;20.70;78.00
73576;DHT22;61859;49.204;8.140;2022-08-19T05:08:14;20.70;77.80
73576;DHT22;61859;49.204;8.140;2022-08-19T05:10:48;20.70;78.40
73576;DHT22;61859;49.204;8.140;2022-08-19T05:13:17;20.70;78.20
73576;DHT22;61859;49.204;8.140;2022-08-19T05:15:43;20.80;77.80
73576;DHT22;61859;49.204;8.140;2022-08-19T05:18:10;20.90;77.70
73576;DHT22;61859;49.204;8.140;2022-08-19T05:20:54;20.90;77.60
73576;DHT22;61859;49.204;8.140;2022-08-19T05:23:38;20.90;77.10
73576;DHT22;61859;49.204;8.140;2022-08-19T05:26:04;21.00;76.90
73576;DHT22;61859;49.204;8.140;2022-08-19T05:28:30;21.20;76.10
73576;DHT22;61859;49.204;8.140;2022-08-19T05:30:55;21.20;76.40
73576;DHT22;61859;49.204;8.140;2022-08-19T05:33:22;21.30;76.00
73576;DHT22;61859;49.204;8.140;2022-08-19T05:35:49;21.30;76.00
73576;DHT22;61859;49.204;8.140;2022-08-19T05:38:16;21.30;75.80
73576;DHT22;61859;49.204;8.140;2022-08-19T05:40:42;21.50;75.10
73576;DHT22;61859;49.204;8.140;2022-08-19T05:43:12;21.50;74.10
73576;DHT22;61859;49.204;8.140;2022-08-19T05:45:41;21.50;74.20
73576;DHT22;61859;49.204;8.140;2022-08-19T05:48:08;21.60;74.50
73576;DHT22;61859;49.204;8.140;2022-08-19T05:50:37;21.60;74.60
73576;DHT22;61859;49.204;8.140;2022-08-19T05:53:03;21.60;74.70
73576;DHT22;61859;49.204;8.140;2022-08-19T05:55:28;21.70;74.40
73576;DHT22;61859;49.204;8.140;2022-08-19T05:57:54;21.60;74.20
73576;DHT22;61859;49.204;8.140;2022-08-19T06:00:19;21.70;74.00
73576;DHT22;61859;49.204;8.140;2022-08-19T06:02:45;21.80;73.60
73576;DHT22;61859;49.204;8.140;2022-08-19T06:05:10;21.80;73.90
73576;DHT22;61859;49.204;8.140;2022-08-19T06:07:38;21.90;74.10
73576;DHT22;61859;49.204;8.140;2022-08-19T06:10:05;21.90;74.40
73576;DHT22;61859;49.204;8.140;2022-08-19T06:12:33;21.90;74.10
73576;DHT22;61859;49.204;8.140;2022-08-19T06:15:08;21.90;73.90
73576;DHT22;61859;49.204;8.140;2022-08-19T06:17:34;21.80;74.40
73576;DHT22;61859;49.204;8.140;2022-08-19T06:20:01;22.00;74.50
73576;DHT22;61859;49.204;8.140;2022-08-19T06:22:27;22.00;73.80
73576;DHT22;61859;49.204;8.140;2022-08-19T06:24:53;22.00;74.10
73576;DHT22;61859;49.204;8.140;2022-08-19T06:27:19;22.20;73.40
73576;DHT22;61859;49.204;8.140;2022-08-19T06:29:45;22.10;73.70
73576;DHT22;61859;49.204;8.140;2022-08-19T06:32:14;22.20;73.80
73576;DHT22;61859;49.204;8.140;2022-08-19T06:34:40;22.30;73.70
73576;DHT22;61859;49.204;8.140;2022-08-19T06:37:06;22.40;73.90
73576;DHT22;61859;49.204;8.140;2022-08-19T06:39:37;22.40;73.50
73576;DHT22;61859;49.204;8.140;2022-08-19T06:42:05;22.60;73.00
73576;DHT22;61859;49.204;8.140;2022-08-19T06:44:35;22.60;73.50
73576;DHT22;61859;49.204;8.140;2022-08-19T06:47:03;22.70;72.30
73576;DHT22;61859;49.204;8.140;2022-08-19T06:49:29;22.70;72.40
73576;DHT22;61859;49.204;8.140;2022-08-19T06:51:59;22.80;72.00
73576;DHT22;61859;49.204;8.140;2022-08-19T06:54:26;22.80;71.70
73576;DHT22;61859;49.204;8.140;2022-08-19T06:56:52;22.80;71.70
73576;DHT22;61859;49.204;8.140;2022-08-19T06:59:23;22.90;71.40
73576;DHT22;61859;49.204;8.140;2022-08-19T07:01:54;22.90;71.00
73576;DHT22;61859;49.204;8.140;2022-08-19T07:04:25;22.90;71.40
73576;DHT22;61859;49.204;8.140;2022-08-19T07:06:58;23.00;71.20
73576;DHT22;61859;49.204;8.140;2022-08-19T07:09:24;23.00;70.80
73576;DHT22;61859;49.204;8.140;2022-08-19T07:11:51;23.00;71.30
73576;DHT22;61859;49.204;8.140;2022-08-19T07:14:19;23.00;70.70
73576;DHT22;61859;49.204;8.140;2022-08-19T07:16:47;23.10;70.60
73576;DHT22;61859;49.204;8.140;2022-08-19T07:19:13;23.20;70.60
73576;DHT22;61859;49.204;8.140;2022-08-19T07:21:40;23.20;70.90
73576;DHT22;61859;49.204;8.140;2022-08-19T07:24:06;23.30;70.40
73576;DHT22;61859;49.204;8.140;2022-08-19T07:26:37;23.30;70.00
73576;DHT22;61859;49.204;8.140;2022-08-19T07:29:04;23.40;69.80
73576;DHT22;61859;49.204;8.140;2022-08-19T07:31:30;23.50;70.10
73576;DHT22;61859;49.204;8.140;2022-08-19T07:33:56;23.50;70.40
73576;DHT22;61859;49.204;8.140;2022-08-19T07:36:25;23.60;70.60
73576;DHT22;61859;49.204;8.140;2022-08-19T07:38:51;23.60;69.30
73576;DHT22;61859;49.204;8.140;2022-08-19T07:41:21;23.70;69.60
73576;DHT22;61859;49.204;8.140;2022-08-19T07:43:48;23.90;69.90
73576;DHT22;61859;49.204;8.140;2022-08-19T07:46:14;24.00;68.90
73576;DHT22;61859;49.204;8.140;2022-08-19T07:48:42;24.00;69.00
73576;DHT22;61859;49.204;8.140;2022-08-19T07:51:09;24.20;68.10
73576;DHT22;61859;49.204;8.140;2022-08-19T07:53:36;24.30;68.50
73576;DHT22;61859;49.204;8.140;2022-08-19T07:56:04;24.40;66.50
73576;DHT22;61859;49.204;8.140;2022-08-19T07:58:32;24.40;66.60
73576;DHT22;61859;49.204;8.140;2022-08-19T08:00:58;24.60;66.40
73576;DHT22;61859;49.204;8.140;2022-08-19T08:03:25;24.70;65.90
73576;DHT22;61859;49.204;8.140;2022-08-19T08:06:12;24.70;65.30
73576;DHT22;61859;49.204;8.140;2022-08-19T08:08:57;24.80;66.10
73576;DHT22;61859;49.204;8.140;2022-08-19T08:11:53;24.90;64.10
73576;DHT22;61859;49.204;8.140;2022-08-19T08:14:31;25.00;64.70
73576;DHT22;61859;49.204;8.140;2022-08-19T08:16:58;25.10;64.50
73576;DHT22;61859;49.204;8.140;2022-08-19T08:19:25;25.10;64.20
73576;DHT22;61859;49.204;8.140;2022-08-19T08:21:52;25.30;62.60
73576;DHT22;61859;49.204;8.140;2022-08-19T08:24:18;25.30;61.10
73576;DHT22;61859;49.204;8.140;2022-08-19T08:26:44;25.50;61.80
73576;DHT22;61859;49.204;8.140;2022-08-19T08:29:13;25.40;61.40
73576;DHT22;61859;49.204;8.140;2022-08-19T08:31:42;25.40;61.90
73576;DHT22;61859;49.204;8.140;2022-08-19T08:34:08;25.70;61.40
73576;DHT22;61859;49.204;8.140;2022-08-19T08:36:39;25.80;61.70
73576;DHT22;61859;49.204;8.140;2022-08-19T08:39:15;26.00;61.70
73576;DHT22;61859;49.204;8.140;2022-08-19T08:41:56;26.00;60.10
73576;DHT22;61859;49.204;8.140;2022-08-19T08:44:29;26.20;60.20
73576;DHT22;61859;49.204;8.140;2022-08-19T08:47:01;26.10;61.60
73576;DHT22;61859;49.204;8.140;2022-08-19T08:49:48;26.10;59.80
73576;DHT22;61859;49.204;8.140;2022-08-19T08:52:32;25.90;60.50
73576;DHT22;61859;49.204;8.140;2022-08-19T08:55:05;25.90;59.30
73576;DHT22;61859;49.204;8.140;2022-08-19T09:00:22;25.60;60.40
73576;DHT22;61859;49.204;8.140;2022-08-19T09:02:49;25.60;61.10
73576;DHT22;61859;49.204;8.140;2022-08-19T09:05:15;25.70;60.90
73576;DHT22;61859;49.204;8.140;2022-08-19T09:07:53;25.70;61.30
73576;DHT22;61859;49.204;8.140;2022-08-19T09:10:44;25.90;60.80
73576;DHT22;61859;49.204;8.140;2022-08-19T09:16:11;26.40;59.30
73576;DHT22;61859;49.204;8.140;2022-08-19T09:18:47;26.70;58.50
73576;DHT22;61859;49.204;8.140;2022-08-19T09:21:14;27.10;57.60
73576;DHT22;61859;49.204;8.140;2022-08-19T09:23:40;27.60;57.30
73576;DHT22;61859;49.204;8.140;2022-08-19T09:26:10;28.10;55.90
73576;DHT22;61859;49.204;8.140;2022-08-19T09:28:39;28.70;52.90
73576;DHT22;61859;49.204;8.140;2022-08-19T09:31:12;29.00;53.20
73576;DHT22;61859;49.204;8.140;2022-08-19T09:33:38;29.30;52.20
73576;DHT22;61859;49.204;8.140;2022-08-19T09:36:06;29.50;51.80
73576;DHT22;61859;49.204;8.140;2022-08-19T09:38:33;29.90;50.50
73576;DHT22;61859;49.204;8.140;2022-08-19T09:41:06;30.00;47.60
73576;DHT22;61859;49.204;8.140;2022-08-19T09:43:33;30.10;49.40
73576;DHT22;61859;49.204;8.140;2022-08-19T09:46:03;30.30;47.80
73576;DHT22;61859;49.204;8.140;2022-08-19T09:48:31;30.60;47.70
73576;DHT22;61859;49.204;8.140;2022-08-19T09:51:03;30.80;47.20
73576;DHT22;61859;49.204;8.140;2022-08-19T09:53:28;30.60;46.80
73576;DHT22;61859;49.204;8.140;2022-08-19T09:55:57;30.50;47.50
73576;DHT22;61859;49.204;8.140;2022-08-19T09:58:22;30.40;48.50
73576;DHT22;61859;49.204;8.140;2022-08-19T10:00:53;30.10;48.90
73576;DHT22;61859;49.204;8.140;2022-08-19T10:03:19;29.60;48.60
73576;DHT22;61859;49.204;8.140;2022-08-19T10:05:45;29.10;49.40
73576;DHT22;61859;49.204;8.140;2022-08-19T10:08:13;28.60;52.30
73576;DHT22;61859;49.204;8.140;2022-08-19T10:10:41;28.20;52.00
73576;DHT22;61859;49.204;8.140;2022-08-19T10:13:09;28.20;52.80
73576;DHT22;61859;49.204;8.140;2022-08-19T10:15:35;28.70;53.50
73576;DHT22;61859;49.204;8.140;2022-08-19T10:18:01;29.10;49.30
73576;DHT22;61859;49.204;8.140;2022-08-19T10:20:26;29.60;49.20
73576;DHT22;61859;49.204;8.140;2022-08-19T10:22:52;29.80;49.00
73576;DHT22;61859;49.204;8.140;2022-08-19T10:25:17;30.20;46.30
73576;DHT22;61859;49.204;8.140;2022-08-19T10:27:43;30.50;46.90
73576;DHT22;61859;49.204;8.140;2022-08-19T10:30:10;30.90;45.70
73576;DHT22;61859;49.204;8.140;2022-08-19T10:32:35;31.30;44.80
73576;DHT22;61859;49.204;8.140;2022-08-19T10:35:02;31.70;44.60
73576;DHT22;61859;49.204;8.140;2022-08-19T10:37:31;31.80;44.60
73576;DHT22;61859;49.204;8.140;2022-08-19T10:39:58;31.50;44.20
73576;DHT22;61859;49.204;8.140;2022-08-19T10:42:24;31.00;44.10
73576;DHT22;61859;49.204;8.140;2022-08-19T10:44:49;30.20;45.70
73576;DHT22;61859;49.204;8.140;2022-08-19T10:47:16;29.80;46.50
73576;DHT22;61859;49.204;8.140;2022-08-19T10:49:41;29.60;46.80
73576;DHT22;61859;49.204;8.140;2022-08-19T10:52:25;29.30;46.60
73576;DHT22;61859;49.204;8.140;2022-08-19T10:55:01;29.00;46.80
73576;DHT22;61859;49.204;8.140;2022-08-19T10:57:45;28.80;48.50
73576;DHT22;61859;49.204;8.140;2022-08-19T11:00:12;28.60;50.10
73576;DHT22;61859;49.204;8.140;2022-08-19T11:02:38;28.50;49.70
73576;DHT22;61859;49.204;8.140;2022-08-19T11:05:05;28.30;49.80
73576;DHT22;61859;49.204;8.140;2022-08-19T11:07:32;28.00;48.90
73576;DHT22;61859;49.204;8.140;2022-08-19T11:09:58;27.80;49.00
73576;DHT22;61859;49.204;8.140;2022-08-19T11:12:23;27.70;50.70
73576;DHT22;61859;49.204;8.140;2022-08-19T11:14:50;27.60;50.90
73576;DHT22;61859;49.204;8.140;2022-08-19T11:17:15;27.60;51.70
73576;DHT22;61859;49.204;8.140;2022-08-19T11:19:41;27.80;51.10
73576;DHT22;61859;49.204;8.140;2022-08-19T11:22:08;28.40;51.30
73576;DHT22;61859;49.204;8.140;2022-08-19T11:24:35;29.30;47.80
73576;DHT22;61859;49.204;8.140;2022-08-19T11:27:05;29.90;45.20
73576;DHT22;61859;49.204;8.140;2022-08-19T11:29:32;30.60;44.80
73576;DHT22;61859;49.204;8.140;2022-08-19T11:31:58;31.00;42.80
73576;DHT22;61859;49.204;8.140;2022-08-19T11:34:26;31.30;44.40
73576;DHT22;61859;49.204;8.140;2022-08-19T11:36:54;31.50;42.80
73576;DHT22;61859;49.204;8.140;2022-08-19T11:39:25;31.60;42.80
73576;DHT22;61859;49.204;8.140;2022-08-19T11:41:50;32.00;41.60
73576;DHT22;61859;49.204;8.140;2022-08-19T11:44:16;32.30;41.40
73576;DHT22;61859;49.204;8.140;2022-08-19T11:46:44;32.60;39.10
73576;DHT22;61859;49.204;8.140;2022-08-19T11:49:14;32.90;38.10
73576;DHT22;61859;49.204;8.140;2022-08-19T11:51:41;33.30;38.30
73576;DHT22;61859;49.204;8.140;2022-08-19T11:54:08;33.70;37.60
73576;DHT22;61859;49.204;8.140;2022-08-19T11:56:36;33.90;37.80
73576;DHT22;61859;49.204;8.140;2022-08-19T11:59:01;33.80;37.80
73576;DHT22;61859;49.204;8.140;2022-08-19T12:01:27;33.90;38.00
73576;DHT22;61859;49.204;8.140;2022-08-19T12:03:55;33.90;37.30
73576;DHT22;61859;49.204;8.140;2022-08-19T12:06:23;33.60;36.10
73576;DHT22;61859;49.204;8.140;2022-08-19T12:08:51;33.70;36.30
73576;DHT22;61859;49.204;8.140;2022-08-19T12:11:17;33.80;37.40
73576;DHT22;61859;49.204;8.140;2022-08-19T12:13:43;34.00;37.50
73576;DHT22;61859;49.204;8.140;2022-08-19T12:16:14;34.10;36.90
73576;DHT22;61859;49.204;8.140;2022-08-19T12:18:42;33.90;36.80
73576;DHT22;61859;49.204;8.140;2022-08-19T12:21:10;33.80;36.40
73576;DHT22;61859;49.204;8.140;2022-08-19T12:23:37;33.80;35.10
73576;DHT22;61859;49.204;8.140;2022-08-19T12:26:03;34.20;36.10
73576;DHT22;61859;49.204;8.140;2022-08-19T12:28:29;34.40;35.10
73576;DHT22;61859;49.204;8.140;2022-08-19T12:30:56;34.70;36.00
73576;DHT22;61859;49.204;8.140;2022-08-19T12:33:22;35.00;35.40
73576;DHT22;61859;49.204;8.140;2022-08-19T12:35:51;35.10;35.20
73576;DHT22;61859;49.204;8.140;2022-08-19T12:38:18;34.90;34.00
73576;DHT22;61859;49.204;8.140;2022-08-19T12:40:48;34.30;35.20
73576;DHT22;61859;49.204;8.140;2022-08-19T12:43:14;33.90;35.00
73576;DHT22;61859;49.204;8.140;2022-08-19T12:45:41;33.70;35.40
73576;DHT22;61859;49.204;8.140;2022-08-19T12:48:08;34.10;36.20
73576;DHT22;61859;49.204;8.140;2022-08-19T12:50:34;34.50;35.70
73576;DHT22;61859;49.204;8.140;2022-08-19T12:52:59;35.10;35.70
73576;DHT22;61859;49.204;8.140;2022-08-19T12:55:25;35.40;35.00
73576;DHT22;61859;49.204;8.140;2022-08-19T12:57:53;35.70;34.90
73576;DHT22;61859;49.204;8.140;2022-08-19T13:00:20;35.90;34.00
73576;DHT22;61859;49.204;8.140;2022-08-19T13:02:47;35.80;33.40
73576;DHT22;61859;49.204;8.140;2022-08-19T13:05:17;35.70;33.10
73576;DHT22;61859;49.204;8.140;2022-08-19T13:07:45;35.40;34.90
73576;DHT22;61859;49.204;8.140;2022-08-19T13:10:13;34.90;35.00
73576;DHT22;61859;49.204;8.140;2022-08-19T13:12:41;34.20;35.30
73576;DHT22;61859;49.204;8.140;2022-08-19T13:15:07;33.60;35.70
73576;DHT22;61859;49.204;8.140;2022-08-19T13:17:34;32.90;36.80
73576;DHT22;61859;49.204;8.140;2022-08-19T13:20:00;32.40;37.30
73576;DHT22;61859;49.204;8.140;2022-08-19T13:22:26;32.10;37.00
73576;DHT22;61859;49.204;8.140;2022-08-19T13:24:52;32.40;37.40
73576;DHT22;61859;49.204;8.140;2022-08-19T13:27:18;33.40;37.40
73576;DHT22;61859;49.204;8.140;2022-08-19T13:29:44;34.70;36.60
73576;DHT22;61859;49.204;8.140;2022-08-19T13:32:29;36.00;35.30
73576;DHT22;61859;49.204;8.140;2022-08-19T13:35:13;37.30;33.30
73576;DHT22;61859;49.204;8.140;2022-08-19T13:37:38;38.30;32.70
73576;DHT22;61859;49.204;8.140;2022-08-19T13:40:12;38.70;30.80
73576;DHT22;61859;49.204;8.140;2022-08-19T13:42:41;38.30;31.00
73576;DHT22;61859;49.204;8.140;2022-08-19T13:45:07;38.50;31.30
73576;DHT22;61859;49.204;8.140;2022-08-19T13:47:34;38.90;30.90
73576;DHT22;61859;49.204;8.140;2022-08-19T13:50:02;39.30;30.40
73576;DHT22;61859;49.204;8.140;2022-08-19T13:52:28;38.90;30.00
73576;DHT22;61859;49.204;8.140;2022-08-19T13:54:53;37.90;30.90
73576;DHT22;61859;49.204;8.140;2022-08-19T13:57:19;36.40;31.90
73576;DHT22;61859;49.204;8.140;2022-08-19T13:59:45;35.70;33.20
73576;DHT22;61859;49.204;8.140;2022-08-19T14:02:10;35.00;32.90
73576;DHT22;61859;49.204;8.140;2022-08-19T14:04:36;34.60;34.30
73576;DHT22;61859;49.204;8.140;2022-08-19T14:07:03;33.90;34.00
73576;DHT22;61859;49.204;8.140;2022-08-19T14:09:29;33.20;34.70
73576;DHT22;61859;49.204;8.140;2022-08-19T14:11:55;32.30;35.60
73576;DHT22;61859;49.204;8.140;2022-08-19T14:14:20;31.70;36.00
73576;DHT22;61859;49.204;8.140;2022-08-19T14:16:46;31.20;36.10
73576;DHT22;61859;49.204;8.140;2022-08-19T14:19:12;30.70;36.90
73576;DHT22;61859;49.204;8.140;2022-08-19T14:21:38;30.40;37.30
73576;DHT22;61859;49.204;8.140;2022-08-19T14:24:04;30.10;37.70
73576;DHT22;61859;49.204;8.140;2022-08-19T14:26:30;29.90;38.70
73576;DHT22;61859;49.204;8.140;2022-08-19T14:28:56;29.80;38.80
73576;DHT22;61859;49.204;8.140;2022-08-19T14:31:23;29.70;38.80
73576;DHT22;61859;49.204;8.140;2022-08-19T14:33:50;29.70;38.00
73576;DHT22;61859;49.204;8.140;2022-08-19T14:36:17;29.60;37.80
73576;DHT22;61859;49.204;8.140;2022-08-19T14:38:43;29.40;38.30
73576;DHT22;61859;49.204;8.140;2022-08-19T14:41:20;29.40;38.60
73576;DHT22;61859;49.204;8.140;2022-08-19T14:43:52;29.30;39.80
73576;DHT22;61859;49.204;8.140;2022-08-19T14:46:20;29.30;39.80
73576;DHT22;61859;49.204;8.140;2022-08-19T14:48:47;29.20;40.30
73576;DHT22;61859;49.204;8.140;2022-08-19T14:51:14;29.20;40.30
73576;DHT22;61859;49.204;8.140;2022-08-19T14:53:39;29.10;40.40
73576;DHT22;61859;49.204;8.140;2022-08-19T14:56:10;29.20;40.40
73576;DHT22;61859;49.204;8.140;2022-08-19T14:58:36;29.20;39.50
73576;DHT22;61859;49.204;8.140;2022-08-19T15:01:01;29.20;39.80
73576;DHT22;61859;49.204;8.140;2022-08-19T15:03:29;29.30;40.00
73576;DHT22;61859;49.204;8.140;2022-08-19T15:05:56;29.40;40.60
73576;DHT22;61859;49.204;8.140;2022-08-19T15:08:22;29.50;39.10
73576;DHT22;61859;49.204;8.140;2022-08-19T15:10:50;29.60;39.20
73576;DHT22;61859;49.204;8.140;2022-08-19T15:13:16;29.70;39.20
73576;DHT22;61859;49.204;8.140;2022-08-19T15:15:42;29.80;39.80
73576;DHT22;61859;49.204;8.140;2022-08-19T15:18:07;29.90;40.30
73576;DHT22;61859;49.204;8.140;2022-08-19T15:20:33;30.00;40.60
73576;DHT22;61859;49.204;8.140;2022-08-19T15:22:59;30.10;39.30
73576;DHT22;61859;49.204;8.140;2022-08-19T15:25:25;30.20;38.50
73576;DHT22;61859;49.204;8.140;2022-08-19T15:27:52;30.20;37.50
73576;DHT22;61859;49.204;8.140;2022-08-19T15:30:21;30.40;37.70
73576;DHT22;61859;49.204;8.140;2022-08-19T15:32:48;30.70;38.20
73576;DHT22;61859;49.204;8.140;2022-08-19T15:35:13;31.10;38.60
73576;DHT22;61859;49.204;8.140;2022-08-19T15:37:39;31.40;37.50
73576;DHT22;61859;49.204;8.140;2022-08-19T15:40:06;31.40;38.00
73576;DHT22;61859;49.204;8.140;2022-08-19T15:42:35;31.30;37.60
73576;DHT22;61859;49.204;8.140;2022-08-19T15:45:03;31.30;36.20